createdAt,value
2022-12-25T00:02:21.541Z,76.03
2022-12-25T00:04:51.706Z,76.14
2022-12-25T00:07:22.152Z,76.45
2022-12-25T00:09:52.252Z,76.28
2022-12-25T00:12:22.984Z,76.10
2022-12-25T00:14:54.471Z,76.18
2022-12-25T00:17:24.739Z,76.04
2022-12-25T00:19:55.077Z,76.09
2022-12-25T00:22:27.137Z,76.05
2022-12-25T00:24:57.404Z,75.87
2022-12-25T00:27:27.811Z,75.92
2022-12-25T00:29:58.181Z,75.80
2022-12-25T00:51:38.624Z,75.84
2022-12-25T00:55:25.448Z,76.04
2022-12-25T00:59:11.103Z,75.92
2022-12-25T01:02:47.548Z,76.00
2022-12-25T01:05:18.786Z,75.91
2022-12-25T01:07:48.806Z,75.81
2022-12-25T01:10:24.919Z,75.71
2022-12-25T01:12:55.020Z,75.82
2022-12-25T01:15:25.488Z,75.77
2022-12-25T01:17:55.500Z,75.78
2022-12-25T01:20:25.534Z,75.76
2022-12-25T01:22:55.755Z,75.74
2022-12-25T01:25:25.729Z,75.61
2022-12-25T01:27:55.913Z,75.72
2022-12-25T01:30:25.996Z,75.63
2022-12-25T01:32:55.933Z,75.83
2022-12-25T01:35:26.724Z,75.81
2022-12-25T01:37:56.846Z,75.86
2022-12-25T01:40:27.061Z,75.73
2022-12-25T01:42:57.226Z,75.62
2022-12-25T01:45:56.448Z,75.47
2022-12-25T01:48:37.127Z,75.40
2022-12-25T01:51:19.486Z,75.34
2022-12-25T01:53:50.189Z,75.34
2022-12-25T01:56:20.765Z,75.35
2022-12-25T01:58:50.029Z,75.42
2022-12-25T02:01:20.534Z,75.19
2022-12-25T02:03:52.279Z,75.30
2022-12-25T02:06:23.086Z,75.46
2022-12-25T02:08:52.367Z,75.42
2022-12-25T02:11:40.979Z,75.40
2022-12-25T02:14:11.851Z,75.44
2022-12-25T02:16:57.414Z,75.49
2022-12-25T02:20:02.848Z,75.64
2022-12-25T02:22:46.180Z,75.75
2022-12-25T02:25:39.389Z,75.68
2022-12-25T02:28:16.649Z,75.82
2022-12-25T02:31:28.338Z,75.62
2022-12-25T02:34:14.479Z,75.59
2022-12-25T02:37:24.972Z,75.64
2022-12-25T02:40:12.696Z,75.70
2022-12-25T02:43:16.605Z,75.74
2022-12-25T02:46:13.973Z,75.90
2022-12-25T02:49:11.188Z,75.83
2022-12-25T02:52:09.514Z,76.03
2022-12-25T02:55:05.408Z,75.97
2022-12-25T02:58:09.146Z,76.22
2022-12-25T03:01:10.296Z,76.19
2022-12-25T03:04:01.707Z,75.97
2022-12-25T03:06:47.140Z,75.93
2022-12-25T03:09:46.251Z,76.15
2022-12-25T03:12:31.728Z,76.27
2022-12-25T03:15:22.393Z,76.42
2022-12-25T03:17:53.255Z,76.33
2022-12-25T03:20:42.803Z,76.33
2022-12-25T03:23:35.918Z,76.22
2022-12-25T03:26:24.919Z,76.08
2022-12-25T03:28:55.471Z,76.16
2022-12-25T03:31:54.885Z,76.13
2022-12-25T03:35:04.573Z,76.19
2022-12-25T03:37:48.445Z,76.00
2022-12-25T03:41:08.744Z,75.89
2022-12-25T03:44:05.553Z,76.04
2022-12-25T03:47:20.395Z,76.05
2022-12-25T03:50:25.250Z,76.38
2022-12-25T03:53:15.893Z,76.21
2022-12-25T03:56:05.709Z,76.21
2022-12-25T03:58:56.001Z,76.27
2022-12-25T04:01:46.826Z,76.08
2022-12-25T04:04:36.476Z,76.12
2022-12-25T04:07:26.267Z,76.26
2022-12-25T04:10:16.368Z,76.18
2022-12-25T04:13:05.198Z,75.88
2022-12-25T04:15:54.502Z,75.92
2022-12-25T04:18:44.558Z,75.92
2022-12-25T04:21:48.054Z,75.60
2022-12-25T04:24:37.542Z,75.38
2022-12-25T04:27:27.405Z,75.43
2022-12-25T04:30:17.374Z,75.68
2022-12-25T04:33:07.458Z,75.57
2022-12-25T04:35:56.168Z,75.78
2022-12-25T04:38:26.505Z,75.79
2022-12-25T04:40:56.833Z,75.82
2022-12-25T04:43:27.435Z,75.74
2022-12-25T04:45:59.493Z,75.35
2022-12-25T04:48:33.038Z,75.65
2022-12-25T04:51:14.708Z,75.78
2022-12-25T04:53:44.777Z,76.10
2022-12-25T04:56:14.843Z,76.00
2022-12-25T04:58:46.004Z,75.84
2022-12-25T05:01:16.884Z,76.04
2022-12-25T05:03:47.574Z,75.79
2022-12-25T05:06:17.686Z,75.84
2022-12-25T05:08:48.684Z,76.05
2022-12-25T05:11:18.623Z,75.86
2022-12-25T05:13:48.550Z,75.80
2022-12-25T05:16:21.110Z,75.94
2022-12-25T05:18:52.758Z,76.03
2022-12-25T05:21:22.759Z,75.97
2022-12-25T05:23:53.658Z,76.26
2022-12-25T05:26:25.734Z,76.16
2022-12-25T05:28:57.025Z,76.05
2022-12-25T05:31:27.085Z,76.36
2022-12-25T05:33:57.322Z,76.31
2022-12-25T05:36:27.667Z,76.54
2022-12-25T05:38:57.773Z,76.43
2022-12-25T05:41:33.758Z,76.50
2022-12-25T05:44:05.339Z,76.30
2022-12-25T05:46:35.376Z,76.32
2022-12-25T05:49:06.243Z,76.35
2022-12-25T05:51:36.238Z,76.04
2022-12-25T05:54:06.708Z,76.11
2022-12-25T05:56:37.535Z,76.13
2022-12-25T05:59:07.751Z,76.09
2022-12-25T06:01:37.877Z,76.45
2022-12-25T06:04:12.470Z,76.36
2022-12-25T06:06:43.577Z,76.29
2022-12-25T06:09:14.176Z,76.73
2022-12-25T06:11:43.139Z,76.86
2022-12-25T06:14:15.565Z,76.71
2022-12-25T06:16:46.079Z,76.71
2022-12-25T06:19:16.486Z,76.79
2022-12-25T06:21:46.841Z,77.00
2022-12-25T06:24:21.270Z,76.59
2022-12-25T06:26:52.061Z,76.60
2022-12-25T06:29:21.682Z,77.16
2022-12-25T06:31:57.818Z,77.00
2022-12-25T06:34:27.880Z,77.05
2022-12-25T06:36:57.897Z,77.39
2022-12-25T06:39:27.614Z,77.54
2022-12-25T06:41:57.817Z,77.60
2022-12-25T06:44:28.250Z,77.52
2022-12-25T06:46:57.078Z,76.65
2022-12-25T06:49:30.082Z,76.10
2022-12-25T06:52:00.548Z,76.52
2022-12-25T06:54:30.961Z,76.73
2022-12-25T06:57:01.348Z,76.61
2022-12-25T06:59:31.582Z,76.68
2022-12-25T07:02:01.771Z,76.63
2022-12-25T07:04:38.540Z,76.34
2022-12-25T07:07:10.050Z,76.38
2022-12-25T07:09:42.847Z,76.49
2022-12-25T07:12:23.997Z,76.22
2022-12-25T07:14:55.827Z,76.14
2022-12-25T07:17:25.408Z,76.34
2022-12-25T07:19:57.713Z,76.61
2022-12-25T07:22:29.524Z,76.68
2022-12-25T07:24:59.613Z,76.55
2022-12-25T07:27:28.541Z,76.73
2022-12-25T07:29:58.947Z,76.57
2022-12-25T07:32:31.958Z,76.75
2022-12-25T07:35:02.599Z,77.21
2022-12-25T07:37:31.606Z,77.14
2022-12-25T07:40:00.799Z,77.18
2022-12-25T07:42:32.431Z,76.93
2022-12-25T07:45:02.732Z,77.23
2022-12-25T07:47:33.153Z,77.40
2022-12-25T07:50:03.491Z,77.58
2022-12-25T07:52:38.027Z,77.55
2022-12-25T07:55:11.392Z,77.79
2022-12-25T07:57:41.147Z,78.01
2022-12-25T08:00:11.750Z,78.39
2022-12-25T08:02:45.114Z,78.14
2022-12-25T08:05:15.939Z,78.12
2022-12-25T08:07:45.808Z,78.18
2022-12-25T08:10:14.578Z,77.64
2022-12-25T08:12:44.964Z,77.52
2022-12-25T08:15:15.422Z,76.77
2022-12-25T08:17:44.987Z,76.62
2022-12-25T08:20:14.492Z,76.36
2022-12-25T08:22:44.855Z,75.46
2022-12-25T08:25:16.391Z,75.66
2022-12-25T08:27:46.265Z,75.37
2022-12-25T08:30:16.324Z,75.04
2022-12-25T08:32:46.494Z,75.14
2022-12-25T08:35:16.955Z,75.11
2022-12-25T08:37:46.863Z,74.85
2022-12-25T08:40:17.069Z,74.16
2022-12-25T08:42:47.452Z,74.12
2022-12-25T08:45:17.923Z,73.65
2022-12-25T08:47:48.322Z,73.44
2022-12-25T08:50:18.431Z,73.02
2022-12-25T08:52:48.414Z,72.55
2022-12-25T08:55:18.529Z,72.47
2022-12-25T08:57:48.568Z,72.31
2022-12-25T09:00:18.747Z,72.47
2022-12-25T09:02:49.019Z,72.81
2022-12-25T09:05:19.289Z,72.93
2022-12-25T09:07:48.284Z,73.36
2022-12-25T09:10:17.178Z,72.82
2022-12-25T09:12:46.832Z,71.37
2022-12-25T09:15:19.025Z,71.02
2022-12-25T09:17:49.369Z,70.50
2022-12-25T09:20:19.996Z,69.86
2022-12-25T09:22:49.941Z,67.54
2022-12-25T09:25:20.315Z,67.41
2022-12-25T09:27:50.255Z,67.10
2022-12-25T09:30:20.520Z,65.99
2022-12-25T09:32:50.972Z,65.66
2022-12-25T09:35:22.131Z,65.80
2022-12-25T09:37:52.421Z,66.16
2022-12-25T09:40:26.366Z,64.51
2022-12-25T09:42:57.563Z,63.44
2022-12-25T09:45:39.268Z,63.86
2022-12-25T09:48:14.402Z,63.78
2022-12-25T09:50:48.053Z,62.27
2022-12-25T09:53:29.023Z,61.64
2022-12-25T09:56:11.880Z,61.52
2022-12-25T09:58:40.778Z,61.98
2022-12-25T10:01:40.687Z,62.40
2022-12-25T10:04:40.619Z,61.64
2022-12-25T10:07:29.991Z,60.69
2022-12-25T10:10:43.269Z,58.89
2022-12-25T10:13:47.227Z,57.99
2022-12-25T10:16:26.649Z,56.83
2022-12-25T10:19:27.805Z,57.91
2022-12-25T10:22:05.027Z,58.81
2022-12-25T10:24:50.769Z,57.94
2022-12-25T10:27:25.966Z,57.55
2022-12-25T10:29:55.988Z,56.82
2022-12-25T10:32:25.380Z,56.14
2022-12-25T10:34:55.821Z,57.70
2022-12-25T10:37:25.781Z,58.02
2022-12-25T10:39:55.847Z,56.70
2022-12-25T10:42:43.058Z,56.35
2022-12-25T10:45:13.408Z,55.77
2022-12-25T10:47:43.524Z,54.44
2022-12-25T10:50:21.053Z,54.33
2022-12-25T10:53:07.625Z,54.02
2022-12-25T10:55:37.756Z,55.00
2022-12-25T10:58:08.094Z,54.80
2022-12-25T11:00:39.140Z,54.70
2022-12-25T11:03:24.678Z,54.61
2022-12-25T11:05:55.338Z,55.26
2022-12-25T11:08:28.337Z,55.68
2022-12-25T11:11:06.995Z,56.29
2022-12-25T11:13:40.913Z,56.05
2022-12-25T11:16:15.509Z,57.07
2022-12-25T11:18:51.438Z,57.45
2022-12-25T11:21:25.637Z,57.10
2022-12-25T11:24:05.128Z,57.16
2022-12-25T11:26:49.892Z,58.17
2022-12-25T11:29:41.502Z,57.34
2022-12-25T11:32:21.510Z,56.46
2022-12-25T11:34:56.423Z,56.50
2022-12-25T11:38:01.437Z,54.77
2022-12-25T11:40:47.928Z,53.64
2022-12-25T11:43:22.756Z,51.44
2022-12-25T11:46:01.379Z,52.11
2022-12-25T11:48:56.589Z,52.55
2022-12-25T11:51:34.069Z,51.84
2022-12-25T11:54:13.084Z,52.12
2022-12-25T11:56:43.971Z,51.67
2022-12-25T11:59:39.376Z,51.69
2022-12-25T12:02:24.311Z,51.75
2022-12-25T12:05:10.056Z,51.22
2022-12-25T12:07:54.202Z,50.89
2022-12-25T12:10:51.524Z,51.26
2022-12-25T12:13:44.985Z,51.76
2022-12-25T12:16:15.202Z,51.93
2022-12-25T12:18:50.360Z,52.17
2022-12-25T12:21:29.623Z,52.49
2022-12-25T12:24:21.080Z,52.19
2022-12-25T12:27:14.268Z,52.81
2022-12-25T12:29:52.179Z,52.16
2022-12-25T12:32:42.244Z,53.13
2022-12-25T12:35:28.817Z,53.24
2022-12-25T12:38:07.076Z,53.09
2022-12-25T12:40:44.549Z,52.00
2022-12-25T12:43:25.039Z,52.07
2022-12-25T12:46:08.035Z,51.09
2022-12-25T12:48:44.537Z,50.01
2022-12-25T12:51:28.610Z,50.21
2022-12-25T12:54:24.841Z,49.94
2022-12-25T12:57:23.396Z,50.99
2022-12-25T12:59:54.503Z,50.01
2022-12-25T13:02:50.719Z,48.61
2022-12-25T13:05:50.529Z,48.92
2022-12-25T13:08:52.525Z,48.79
2022-12-25T13:11:31.858Z,49.04
2022-12-25T13:14:03.596Z,49.84
2022-12-25T13:16:41.505Z,50.28
2022-12-25T13:19:28.184Z,50.52
2022-12-25T13:22:04.108Z,50.96
2022-12-25T13:24:37.306Z,50.87
2022-12-25T13:27:28.134Z,50.87
2022-12-25T13:29:59.121Z,51.72
2022-12-25T13:32:34.014Z,52.21
2022-12-25T13:35:05.160Z,53.07
2022-12-25T13:37:35.621Z,53.30
2022-12-25T13:40:19.800Z,53.78
2022-12-25T13:42:52.026Z,54.39
2022-12-25T13:45:24.243Z,54.88
2022-12-25T13:47:56.063Z,55.49
2022-12-25T13:50:33.876Z,55.86
2022-12-25T13:53:16.890Z,55.97
2022-12-25T13:55:52.968Z,55.95
2022-12-25T13:58:31.139Z,56.39
2022-12-25T14:01:02.036Z,56.97
2022-12-25T14:03:37.042Z,58.24
2022-12-25T14:06:21.861Z,58.93
2022-12-25T14:08:53.722Z,58.93
2022-12-25T14:11:25.816Z,59.30
2022-12-25T14:14:00.655Z,58.93
2022-12-25T14:16:31.219Z,59.67
2022-12-25T14:19:03.958Z,59.79
2022-12-25T14:21:50.620Z,59.89
2022-12-25T14:24:22.717Z,60.31
2022-12-25T14:27:03.552Z,60.25
2022-12-25T14:29:43.727Z,61.05
2022-12-25T14:32:20.987Z,61.22
2022-12-25T14:34:59.872Z,62.58
2022-12-25T14:37:33.231Z,62.95
2022-12-25T14:40:24.407Z,62.63
2022-12-25T14:43:06.311Z,62.61
2022-12-25T14:45:41.230Z,62.01
2022-12-25T14:48:25.465Z,62.28
2022-12-25T14:51:06.352Z,62.44
2022-12-25T14:53:48.776Z,61.98
2022-12-25T14:56:21.604Z,61.97
2022-12-25T14:58:55.430Z,62.17
2022-12-25T15:01:37.438Z,62.30
2022-12-25T15:04:12.504Z,62.45
2022-12-25T15:07:00.799Z,62.86
2022-12-25T15:09:31.003Z,62.56
2022-12-25T15:12:01.028Z,62.53
2022-12-25T15:14:31.996Z,61.83
2022-12-25T15:17:02.302Z,62.13
2022-12-25T15:19:38.283Z,62.40
2022-12-25T15:22:12.933Z,64.00
2022-12-25T15:24:43.000Z,64.61
2022-12-25T15:27:19.230Z,64.58
2022-12-25T15:32:41.119Z,65.98
2022-12-25T15:35:19.833Z,66.33
2022-12-25T15:37:51.280Z,66.75
2022-12-25T15:40:21.924Z,66.91
2022-12-25T15:42:56.341Z,67.00
2022-12-25T15:45:29.585Z,67.10
2022-12-25T15:48:00.281Z,67.36
2022-12-25T15:50:30.853Z,67.65
2022-12-25T15:52:59.957Z,67.45
2022-12-25T15:55:29.989Z,67.76
2022-12-25T15:58:00.249Z,68.10
2022-12-25T16:00:29.497Z,68.48
2022-12-25T16:02:59.663Z,68.57
2022-12-25T16:05:29.593Z,68.75
2022-12-25T16:07:59.627Z,68.65
2022-12-25T16:10:36.668Z,68.76
2022-12-25T16:13:09.302Z,69.28
2022-12-25T16:15:39.851Z,68.91
2022-12-25T16:18:10.908Z,69.35
2022-12-25T16:20:41.321Z,69.15
2022-12-25T16:23:10.868Z,69.35
2022-12-25T16:25:42.542Z,69.31
2022-12-25T16:28:12.653Z,69.88
2022-12-25T16:30:43.270Z,69.66
2022-12-25T16:33:13.664Z,69.76
2022-12-25T16:35:44.715Z,69.58
2022-12-25T16:38:14.877Z,69.35
2022-12-25T16:40:45.801Z,69.32
2022-12-25T16:43:21.893Z,69.39
2022-12-25T16:45:55.143Z,69.23
2022-12-25T16:48:25.457Z,69.35
2022-12-25T16:50:55.797Z,69.65
2022-12-25T16:53:25.878Z,69.85
2022-12-25T16:56:15.243Z,69.66
2022-12-25T16:58:47.011Z,69.91
2022-12-25T17:01:20.792Z,70.22
2022-12-25T17:03:51.912Z,70.37
2022-12-25T17:06:25.319Z,70.19
2022-12-25T17:08:58.809Z,70.28
2022-12-25T17:11:30.455Z,70.57
2022-12-25T17:14:03.952Z,70.46
2022-12-25T17:16:36.073Z,70.42
2022-12-25T17:19:11.926Z,70.43
2022-12-25T17:21:42.734Z,70.67
2022-12-25T17:24:13.314Z,71.30
2022-12-25T17:26:44.420Z,71.50
2022-12-25T17:29:21.941Z,71.40
2022-12-25T17:31:53.743Z,71.47
2022-12-25T17:34:24.090Z,71.40
2022-12-25T17:36:55.071Z,71.47
2022-12-25T17:39:25.680Z,71.55
2022-12-25T17:41:55.685Z,72.32
2022-12-25T17:44:26.128Z,72.61
2022-12-25T17:46:56.092Z,72.60
2022-12-25T17:49:26.563Z,72.56
2022-12-25T17:51:56.908Z,73.02
2022-12-25T17:54:27.491Z,73.50
2022-12-25T17:56:56.631Z,73.33
2022-12-25T17:59:30.138Z,72.93
2022-12-25T18:02:01.091Z,72.17
2022-12-25T18:04:30.933Z,72.18
2022-12-25T18:07:01.414Z,72.82
2022-12-25T18:09:31.619Z,73.10
2022-12-25T18:12:01.998Z,72.88
2022-12-25T18:14:32.330Z,72.63
2022-12-25T18:17:02.596Z,73.81
2022-12-25T18:19:33.310Z,74.27
2022-12-25T18:22:03.390Z,74.31
2022-12-25T18:24:33.659Z,74.72
2022-12-25T18:27:06.730Z,74.56
2022-12-25T18:29:36.941Z,74.38
2022-12-25T18:32:07.213Z,74.49
2022-12-25T18:34:37.918Z,74.51
2022-12-25T18:37:08.082Z,74.55
2022-12-25T18:39:40.566Z,75.09
2022-12-25T18:42:33.118Z,74.52
2022-12-25T18:45:03.681Z,74.61
2022-12-25T18:47:35.761Z,74.46
2022-12-25T18:50:07.583Z,74.94
2022-12-25T18:52:49.766Z,74.77
2022-12-25T18:55:22.074Z,75.13
2022-12-25T18:57:52.490Z,75.31
2022-12-25T19:00:22.902Z,75.49
2022-12-25T19:02:58.761Z,75.30
2022-12-25T19:05:29.179Z,75.21
2022-12-25T19:07:59.150Z,74.86
2022-12-25T19:10:31.485Z,74.44
2022-12-25T19:13:01.923Z,74.81
2022-12-25T19:15:30.700Z,74.86
2022-12-25T19:18:01.145Z,74.52
2022-12-25T19:20:31.454Z,74.30
2022-12-25T19:23:01.809Z,73.96
2022-12-25T19:25:31.575Z,74.03
2022-12-25T19:28:01.901Z,73.73
2022-12-25T19:30:31.943Z,74.46
2022-12-25T19:33:01.858Z,74.63
2022-12-25T19:35:31.030Z,74.79
2022-12-25T19:38:01.400Z,74.69
2022-12-25T19:40:39.243Z,75.14
2022-12-25T19:43:12.882Z,75.25
2022-12-25T19:45:42.492Z,75.33
2022-12-25T19:48:12.950Z,75.35
2022-12-25T19:50:44.311Z,75.46
2022-12-25T19:53:17.248Z,75.70
2022-12-25T19:55:55.223Z,75.92
2022-12-25T19:58:36.524Z,75.42
2022-12-25T20:01:11.390Z,75.65
2022-12-25T20:03:50.450Z,75.48
2022-12-25T20:06:26.739Z,75.51
2022-12-25T20:09:00.051Z,75.47
2022-12-25T20:11:32.227Z,75.06
2022-12-25T20:14:04.054Z,74.61
2022-12-25T20:16:41.148Z,75.02
2022-12-25T20:19:15.449Z,75.50
2022-12-25T20:21:46.282Z,75.73
2022-12-25T20:24:16.697Z,75.69
2022-12-25T20:26:48.272Z,75.35
2022-12-25T20:29:19.272Z,75.51
2022-12-25T20:31:49.464Z,75.35
2022-12-25T20:57:42.975Z,75.74
2022-12-25T21:05:56.590Z,75.53
2022-12-25T21:08:27.453Z,75.32
2022-12-25T21:11:01.405Z,75.44
2022-12-25T21:13:33.593Z,75.61
2022-12-25T21:16:07.980Z,75.42
2022-12-25T21:18:41.253Z,74.87
2022-12-25T21:21:14.220Z,75.03
2022-12-25T21:23:46.125Z,74.77
2022-12-25T21:26:27.106Z,75.14
2022-12-25T21:29:00.650Z,75.43
2022-12-25T21:31:55.810Z,75.78
2022-12-25T21:34:30.951Z,75.88
2022-12-25T21:37:01.197Z,76.02
2022-12-25T21:39:31.680Z,76.25
2022-12-25T21:42:04.826Z,76.00
2022-12-25T21:44:35.290Z,76.16
2022-12-25T21:47:05.489Z,76.03
2022-12-25T21:49:54.953Z,76.13
2022-12-25T21:52:24.989Z,75.96
2022-12-25T21:54:54.209Z,75.77
2022-12-25T21:57:24.251Z,75.75
2022-12-25T21:59:56.250Z,75.74
2022-12-25T22:02:26.462Z,75.54
2022-12-25T22:04:58.974Z,76.04
2022-12-25T22:07:29.585Z,76.01
2022-12-25T22:09:59.995Z,75.93
2022-12-25T22:12:49.978Z,76.14
2022-12-25T22:15:20.184Z,76.24
2022-12-25T22:18:09.748Z,76.16
2022-12-25T22:20:39.980Z,76.20
2022-12-25T22:23:10.262Z,76.33
2022-12-25T22:25:40.588Z,75.88
2022-12-25T22:28:10.913Z,76.08
2022-12-25T22:30:44.694Z,76.26
2022-12-25T22:33:16.899Z,76.19
2022-12-25T22:35:47.868Z,76.10
2022-12-25T22:38:19.630Z,76.00
2022-12-25T22:40:50.132Z,76.05
2022-12-25T22:43:21.312Z,75.98
2022-12-25T22:45:52.626Z,75.72
2022-12-25T22:48:23.607Z,75.82
2022-12-25T22:50:54.548Z,75.82
2022-12-25T22:53:25.635Z,75.82
2022-12-25T22:55:56.605Z,75.80
2022-12-25T22:58:27.081Z,75.66
2022-12-25T23:00:57.904Z,75.62
2022-12-25T23:03:29.370Z,75.88
2022-12-25T23:06:01.484Z,75.62
2022-12-25T23:08:32.534Z,75.94
2022-12-25T23:11:04.492Z,75.81
2022-12-25T23:13:53.572Z,76.00
2022-12-25T23:16:26.134Z,75.80
2022-12-25T23:19:17.408Z,75.77
2022-12-25T23:22:07.406Z,75.93
2022-12-25T23:24:58.231Z,75.95
2022-12-25T23:27:29.715Z,76.04
2022-12-25T23:30:00.449Z,75.91
2022-12-25T23:32:31.156Z,75.58
2022-12-25T23:35:02.335Z,75.73
2022-12-25T23:37:32.931Z,75.75
2022-12-25T23:40:04.749Z,75.82
2022-12-25T23:42:35.584Z,75.80
2022-12-25T23:45:06.781Z,75.65
2022-12-25T23:47:37.866Z,75.37
2022-12-25T23:50:09.465Z,75.73
2022-12-25T23:52:40.347Z,75.68
2022-12-25T23:55:11.037Z,75.59
2022-12-25T23:57:41.077Z,75.59
